sensor_id;sensor_type;location;lat;lon;timestamp;pressure;altitude;pressure_sealevel;temperature;humidity
40117;BME280;25829;50.228;18.936;2023-05-21T00:46:01;99015.00;;;14.65;71.25
40117;BME280;25829;50.228;18.936;2023-05-21T00:49:02;99005.19;;;14.66;71.24
40117;BME280;25829;50.228;18.936;2023-05-21T00:52:04;99010.25;;;14.67;71.05
40117;BME280;25829;50.228;18.936;2023-05-21T00:55:05;99004.50;;;14.70;71.43
40117;BME280;25829;50.228;18.936;2023-05-21T00:58:07;98998.41;;;14.70;71.27
40117;BME280;25829;50.228;18.936;2023-05-21T01:33:01;98980.97;;;14.74;71.44
40117;BME280;25829;50.228;18.936;2023-05-21T01:36:07;98982.03;;;14.73;71.34
40117;BME280;25829;50.228;18.936;2023-05-21T01:39:26;98982.38;;;14.76;71.25
40117;BME280;25829;50.228;18.936;2023-05-21T01:42:29;98977.28;;;14.75;71.43
40117;BME280;25829;50.228;18.936;2023-05-21T01:45:32;98971.97;;;14.75;71.49
40117;BME280;25829;50.228;18.936;2023-05-21T01:48:36;98975.22;;;14.77;71.36
40117;BME280;25829;50.228;18.936;2023-05-21T01:51:38;98966.44;;;14.76;71.59
40117;BME280;25829;50.228;18.936;2023-05-21T01:54:39;98966.44;;;14.76;71.28
40117;BME280;25829;50.228;18.936;2023-05-21T01:57:40;98958.69;;;14.75;71.56
40117;BME280;25829;50.228;18.936;2023-05-21T02:14:14;98949.78;;;14.69;71.75
40117;BME280;25829;50.228;18.936;2023-05-21T02:17:16;98956.50;;;14.72;71.78
40117;BME280;25829;50.228;18.936;2023-05-21T02:20:17;98954.06;;;14.70;71.82
40117;BME280;25829;50.228;18.936;2023-05-21T02:23:18;98949.41;;;14.66;71.82
40117;BME280;25829;50.228;18.936;2023-05-21T02:26:19;98951.72;;;14.62;71.89
40117;BME280;25829;50.228;18.936;2023-05-21T02:29:21;98948.88;;;14.57;72.00
40117;BME280;25829;50.228;18.936;2023-05-21T02:32:21;98953.63;;;14.55;72.04
40117;BME280;25829;50.228;18.936;2023-05-21T02:35:23;98950.16;;;14.54;71.93
40117;BME280;25829;50.228;18.936;2023-05-21T02:38:23;98947.72;;;14.53;72.16
40117;BME280;25829;50.228;18.936;2023-05-21T02:41:25;98945.72;;;14.48;72.12
40117;BME280;25829;50.228;18.936;2023-05-21T02:44:26;98945.13;;;14.46;72.44
40117;BME280;25829;50.228;18.936;2023-05-21T03:16:52;98923.69;;;14.04;73.34
40117;BME280;25829;50.228;18.936;2023-05-21T03:19:52;98931.25;;;14.01;73.33
40117;BME280;25829;50.228;18.936;2023-05-21T03:22:54;98932.31;;;14.00;73.33
40117;BME280;25829;50.228;18.936;2023-05-21T03:25:55;98922.50;;;14.00;73.44
40117;BME280;25829;50.228;18.936;2023-05-21T03:28:56;98927.56;;;14.02;73.27
40117;BME280;25829;50.228;18.936;2023-05-21T03:31:57;98937.16;;;14.03;73.29
40117;BME280;25829;50.228;18.936;2023-05-21T03:34:58;98922.06;;;14.03;73.28
40117;BME280;25829;50.228;18.936;2023-05-21T03:37:59;98920.44;;;14.02;73.23
40117;BME280;25829;50.228;18.936;2023-05-21T03:41:00;98927.94;;;14.05;73.25
40117;BME280;25829;50.228;18.936;2023-05-21T03:44:01;98936.50;;;14.07;73.11
40117;BME280;25829;50.228;18.936;2023-05-21T03:47:08;98929.72;;;14.11;73.07
40117;BME280;25829;50.228;18.936;2023-05-21T03:50:10;98933.00;;;14.13;73.04
40117;BME280;25829;50.228;18.936;2023-05-21T03:53:12;98923.38;;;14.12;72.90
40117;BME280;25829;50.228;18.936;2023-05-21T03:56:13;98920.28;;;14.15;72.89
40117;BME280;25829;50.228;18.936;2023-05-21T03:59:15;98924.16;;;14.20;72.54
40117;BME280;25829;50.228;18.936;2023-05-21T04:02:17;98916.56;;;14.23;72.48
40117;BME280;25829;50.228;18.936;2023-05-21T04:05:19;98921.81;;;14.30;72.38
40117;BME280;25829;50.228;18.936;2023-05-21T04:08:20;98925.06;;;14.32;72.18
40117;BME280;25829;50.228;18.936;2023-05-21T04:11:21;98919.09;;;14.36;72.28
40117;BME280;25829;50.228;18.936;2023-05-21T04:14:22;98918.44;;;14.41;72.32
40117;BME280;25829;50.228;18.936;2023-05-21T04:17:25;98919.03;;;14.43;72.21
40117;BME280;25829;50.228;18.936;2023-05-21T04:20:26;98925.13;;;14.44;71.69
40117;BME280;25829;50.228;18.936;2023-05-21T04:23:27;98927.94;;;14.49;72.03
40117;BME280;25829;50.228;18.936;2023-05-21T04:26:29;98929.94;;;14.53;71.75
40117;BME280;25829;50.228;18.936;2023-05-21T04:29:33;98934.59;;;14.58;71.51
40117;BME280;25829;50.228;18.936;2023-05-21T04:45:52;98937.72;;;14.85;70.96
40117;BME280;25829;50.228;18.936;2023-05-21T04:48:57;98940.97;;;14.87;70.59
40117;BME280;25829;50.228;18.936;2023-05-21T04:52:02;98940.47;;;14.97;70.66
40117;BME280;25829;50.228;18.936;2023-05-21T04:55:03;98935.06;;;15.03;70.47
40117;BME280;25829;50.228;18.936;2023-05-21T04:58:07;98936.59;;;15.11;70.14
40117;BME280;25829;50.228;18.936;2023-05-21T05:18:33;98937.63;;;15.40;68.79
40117;BME280;25829;50.228;18.936;2023-05-21T05:21:35;98939.38;;;15.46;68.74
40117;BME280;25829;50.228;18.936;2023-05-21T05:24:38;98944.16;;;15.56;68.44
40117;BME280;25829;50.228;18.936;2023-05-21T05:27:39;98937.34;;;15.60;67.95
40117;BME280;25829;50.228;18.936;2023-05-21T05:30:40;98938.03;;;15.67;68.15
40117;BME280;25829;50.228;18.936;2023-05-21T05:33:51;98945.47;;;15.77;67.87
40117;BME280;25829;50.228;18.936;2023-05-21T05:36:52;98929.94;;;15.86;67.52
40117;BME280;25829;50.228;18.936;2023-05-21T05:39:52;98934.50;;;15.97;67.61
40117;BME280;25829;50.228;18.936;2023-05-21T05:42:53;98931.81;;;16.09;67.23
40117;BME280;25829;50.228;18.936;2023-05-21T05:45:54;98933.91;;;16.18;66.91
40117;BME280;25829;50.228;18.936;2023-05-21T05:48:55;98932.91;;;16.31;66.74
40117;BME280;25829;50.228;18.936;2023-05-21T05:51:56;98924.53;;;16.39;66.22
40117;BME280;25829;50.228;18.936;2023-05-21T05:54:57;98932.28;;;16.53;65.80
40117;BME280;25829;50.228;18.936;2023-05-21T05:57:58;98934.09;;;16.64;65.43
40117;BME280;25829;50.228;18.936;2023-05-21T06:01:02;98940.34;;;16.69;65.34
40117;BME280;25829;50.228;18.936;2023-05-21T06:04:03;98929.31;;;16.78;65.13
40117;BME280;25829;50.228;18.936;2023-05-21T06:07:04;98929.41;;;16.83;64.65
40117;BME280;25829;50.228;18.936;2023-05-21T06:10:06;98929.84;;;16.91;64.44
40117;BME280;25829;50.228;18.936;2023-05-21T06:13:07;98926.00;;;16.99;64.23
40117;BME280;25829;50.228;18.936;2023-05-21T06:16:10;98935.78;;;17.10;63.94
40117;BME280;25829;50.228;18.936;2023-05-21T06:19:12;98929.97;;;17.25;63.85
40117;BME280;25829;50.228;18.936;2023-05-21T06:22:13;98930.66;;;17.49;63.80
40117;BME280;25829;50.228;18.936;2023-05-21T06:25:13;98925.63;;;17.86;63.98
40117;BME280;25829;50.228;18.936;2023-05-21T06:28:15;98919.06;;;18.28;63.32
40117;BME280;25829;50.228;18.936;2023-05-21T06:31:21;98925.72;;;18.69;62.34
40117;BME280;25829;50.228;18.936;2023-05-21T06:34:23;98920.72;;;18.95;60.75
40117;BME280;25829;50.228;18.936;2023-05-21T06:37:24;98924.63;;;19.09;59.92
40117;BME280;25829;50.228;18.936;2023-05-21T06:40:25;98913.75;;;19.21;60.37
40117;BME280;25829;50.228;18.936;2023-05-21T06:43:30;98908.47;;;19.26;58.96
40117;BME280;25829;50.228;18.936;2023-05-21T06:47:03;98913.00;;;19.25;59.21
40117;BME280;25829;50.228;18.936;2023-05-21T06:50:04;98914.06;;;19.24;59.52
40117;BME280;25829;50.228;18.936;2023-05-21T06:53:05;98908.47;;;19.26;59.20
40117;BME280;25829;50.228;18.936;2023-05-21T06:56:06;98913.56;;;19.27;59.01
40117;BME280;25829;50.228;18.936;2023-05-21T06:59:13;98905.53;;;19.27;58.97
40117;BME280;25829;50.228;18.936;2023-05-21T07:02:14;98904.22;;;19.30;58.04
40117;BME280;25829;50.228;18.936;2023-05-21T07:05:16;98909.56;;;19.30;57.98
40117;BME280;25829;50.228;18.936;2023-05-21T07:08:17;98899.66;;;19.25;58.25
40117;BME280;25829;50.228;18.936;2023-05-21T07:11:20;98910.88;;;19.27;58.49
40117;BME280;25829;50.228;18.936;2023-05-21T07:14:23;98894.13;;;19.37;58.15
40117;BME280;25829;50.228;18.936;2023-05-21T07:17:30;98894.44;;;19.46;57.75
40117;BME280;25829;50.228;18.936;2023-05-21T07:20:31;98893.50;;;19.57;57.09
40117;BME280;25829;50.228;18.936;2023-05-21T07:23:36;98883.97;;;19.71;57.59
40117;BME280;25829;50.228;18.936;2023-05-21T07:26:37;98887.03;;;19.85;57.28
40117;BME280;25829;50.228;18.936;2023-05-21T07:29:38;98891.94;;;19.98;56.96
40117;BME280;25829;50.228;18.936;2023-05-21T07:32:39;98886.44;;;20.20;57.36
40117;BME280;25829;50.228;18.936;2023-05-21T07:35:40;98884.44;;;20.48;56.67
40117;BME280;25829;50.228;18.936;2023-05-21T07:38:42;98885.88;;;20.76;55.41
40117;BME280;25829;50.228;18.936;2023-05-21T07:41:50;98877.06;;;20.96;54.07
40117;BME280;25829;50.228;18.936;2023-05-21T07:44:51;98880.31;;;21.08;54.87
40117;BME280;25829;50.228;18.936;2023-05-21T07:47:52;98879.50;;;21.08;55.30
40117;BME280;25829;50.228;18.936;2023-05-21T07:50:53;98881.94;;;21.14;55.03
40117;BME280;25829;50.228;18.936;2023-05-21T07:53:54;98879.81;;;21.21;54.41
40117;BME280;25829;50.228;18.936;2023-05-21T07:57:05;98875.00;;;21.29;54.07
40117;BME280;25829;50.228;18.936;2023-05-21T08:00:41;98871.50;;;21.38;52.39
40117;BME280;25829;50.228;18.936;2023-05-21T08:03:44;98873.94;;;21.45;53.41
40117;BME280;25829;50.228;18.936;2023-05-21T08:06:48;98863.19;;;21.55;52.97
40117;BME280;25829;50.228;18.936;2023-05-21T08:09:49;98869.34;;;21.66;52.99
40117;BME280;25829;50.228;18.936;2023-05-21T08:12:51;98861.53;;;21.80;51.95
40117;BME280;25829;50.228;18.936;2023-05-21T08:15:53;98862.88;;;21.87;52.34
40117;BME280;25829;50.228;18.936;2023-05-21T08:18:55;98858.03;;;22.00;51.64
40117;BME280;25829;50.228;18.936;2023-05-21T08:21:57;98864.16;;;22.21;51.05
40117;BME280;25829;50.228;18.936;2023-05-21T08:24:58;98866.22;;;22.39;50.58
40117;BME280;25829;50.228;18.936;2023-05-21T08:28:02;98857.00;;;22.60;50.17
40117;BME280;25829;50.228;18.936;2023-05-21T08:31:04;98859.84;;;22.90;49.80
40117;BME280;25829;50.228;18.936;2023-05-21T08:34:07;98855.78;;;23.26;48.73
40117;BME280;25829;50.228;18.936;2023-05-21T08:37:16;98857.97;;;23.88;48.05
40117;BME280;25829;50.228;18.936;2023-05-21T08:40:40;98843.69;;;24.59;45.39
40117;BME280;25829;50.228;18.936;2023-05-21T08:43:42;98848.97;;;25.21;46.35
40117;BME280;25829;50.228;18.936;2023-05-21T08:46:48;98849.31;;;25.99;44.78
40117;BME280;25829;50.228;18.936;2023-05-21T08:49:50;98851.47;;;26.65;44.98
40117;BME280;25829;50.228;18.936;2023-05-21T08:52:51;98857.25;;;27.23;43.21
40117;BME280;25829;50.228;18.936;2023-05-21T08:55:59;98846.56;;;27.71;43.86
40117;BME280;25829;50.228;18.936;2023-05-21T08:59:17;98838.63;;;28.23;42.61
40117;BME280;25829;50.228;18.936;2023-05-21T09:02:21;98840.31;;;28.68;38.28
40117;BME280;25829;50.228;18.936;2023-05-21T09:05:24;98835.53;;;28.91;41.17
40117;BME280;25829;50.228;18.936;2023-05-21T09:08:34;98837.31;;;29.13;40.30
40117;BME280;25829;50.228;18.936;2023-05-21T09:11:55;98840.59;;;29.53;40.99
40117;BME280;25829;50.228;18.936;2023-05-21T09:15:17;98842.25;;;29.92;35.87
40117;BME280;25829;50.228;18.936;2023-05-21T09:18:18;98842.47;;;30.17;40.58
40117;BME280;25829;50.228;18.936;2023-05-21T09:21:40;98830.25;;;30.53;40.01
40117;BME280;25829;50.228;18.936;2023-05-21T09:24:47;98835.56;;;30.49;37.78
40117;BME280;25829;50.228;18.936;2023-05-21T09:27:51;98837.75;;;30.56;38.38
40117;BME280;25829;50.228;18.936;2023-05-21T09:30:54;98834.44;;;30.71;38.00
40117;BME280;25829;50.228;18.936;2023-05-21T09:33:54;98834.16;;;30.85;37.89
40117;BME280;25829;50.228;18.936;2023-05-21T09:36:56;98833.13;;;30.98;33.48
40117;BME280;25829;50.228;18.936;2023-05-21T09:39:58;98845.94;;;30.98;36.64
40117;BME280;25829;50.228;18.936;2023-05-21T09:43:00;98836.91;;;31.06;36.85
40117;BME280;25829;50.228;18.936;2023-05-21T09:46:01;98836.09;;;31.05;34.48
40117;BME280;25829;50.228;18.936;2023-05-21T09:49:04;98828.47;;;30.99;35.76
40117;BME280;25829;50.228;18.936;2023-05-21T09:52:07;98831.03;;;30.74;35.19
40117;BME280;25829;50.228;18.936;2023-05-21T09:55:13;98824.56;;;30.37;35.93
40117;BME280;25829;50.228;18.936;2023-05-21T09:58:13;98822.97;;;29.68;36.57
40117;BME280;25829;50.228;18.936;2023-05-21T10:01:17;98819.41;;;29.03;36.68
40117;BME280;25829;50.228;18.936;2023-05-21T10:04:20;98813.00;;;28.47;36.98
40117;BME280;25829;50.228;18.936;2023-05-21T10:07:22;98821.44;;;27.97;37.78
40117;BME280;25829;50.228;18.936;2023-05-21T10:10:26;98815.06;;;27.62;37.75
40117;BME280;25829;50.228;18.936;2023-05-21T10:13:27;98816.91;;;27.21;36.52
40117;BME280;25829;50.228;18.936;2023-05-21T10:16:29;98810.38;;;26.77;36.72
40117;BME280;25829;50.228;18.936;2023-05-21T10:19:32;98812.22;;;26.40;37.13
40117;BME280;25829;50.228;18.936;2023-05-21T10:22:34;98808.16;;;26.15;36.86
40117;BME280;25829;50.228;18.936;2023-05-21T10:25:38;98819.34;;;25.81;37.03
40117;BME280;25829;50.228;18.936;2023-05-21T10:28:40;98807.59;;;25.58;37.34
40117;BME280;25829;50.228;18.936;2023-05-21T10:31:42;98802.34;;;25.34;36.83
40117;BME280;25829;50.228;18.936;2023-05-21T10:34:46;98803.34;;;25.06;37.41
40117;BME280;25829;50.228;18.936;2023-05-21T10:37:48;98796.28;;;24.91;36.75
40117;BME280;25829;50.228;18.936;2023-05-21T10:40:52;98794.69;;;24.71;36.99
40117;BME280;25829;50.228;18.936;2023-05-21T11:00:09;98797.38;;;24.09;35.75
40117;BME280;25829;50.228;18.936;2023-05-21T11:03:13;98790.09;;;24.10;36.34
40117;BME280;25829;50.228;18.936;2023-05-21T11:21:49;98785.13;;;23.98;36.02
40117;BME280;25829;50.228;18.936;2023-05-21T11:24:52;98779.19;;;23.96;36.48
40117;BME280;25829;50.228;18.936;2023-05-21T11:27:53;98777.59;;;23.95;37.03
40117;BME280;25829;50.228;18.936;2023-05-21T11:31:24;98778.06;;;24.02;35.44
40117;BME280;25829;50.228;18.936;2023-05-21T11:34:25;98768.69;;;23.94;35.96
40117;BME280;25829;50.228;18.936;2023-05-21T11:37:32;98765.91;;;23.80;36.47
40117;BME280;25829;50.228;18.936;2023-05-21T11:40:34;98759.19;;;23.78;36.88
40117;BME280;25829;50.228;18.936;2023-05-21T11:43:39;98761.31;;;23.81;36.50
40117;BME280;25829;50.228;18.936;2023-05-21T11:46:41;98763.47;;;23.79;37.16
40117;BME280;25829;50.228;18.936;2023-05-21T11:49:43;98760.56;;;23.75;34.23
40117;BME280;25829;50.228;18.936;2023-05-21T11:52:47;98759.81;;;23.70;36.30
40117;BME280;25829;50.228;18.936;2023-05-21T11:55:48;98768.78;;;23.65;36.70
40117;BME280;25829;50.228;18.936;2023-05-21T11:58:56;98763.38;;;23.65;37.18
40117;BME280;25829;50.228;18.936;2023-05-21T12:01:57;98770.59;;;23.70;37.27
40117;BME280;25829;50.228;18.936;2023-05-21T12:04:58;98770.53;;;23.75;36.92
40117;BME280;25829;50.228;18.936;2023-05-21T12:07:59;98768.94;;;23.74;36.11
40117;BME280;25829;50.228;18.936;2023-05-21T12:11:00;98760.63;;;23.70;37.02
40117;BME280;25829;50.228;18.936;2023-05-21T12:14:01;98770.38;;;23.66;37.56
40117;BME280;25829;50.228;18.936;2023-05-21T12:17:02;98770.59;;;23.70;37.24
40117;BME280;25829;50.228;18.936;2023-05-21T12:20:04;98757.69;;;23.67;36.86
40117;BME280;25829;50.228;18.936;2023-05-21T12:23:25;98759.81;;;23.70;36.55
40117;BME280;25829;50.228;18.936;2023-05-21T12:26:26;98763.72;;;23.58;36.36
40117;BME280;25829;50.228;18.936;2023-05-21T12:29:30;98754.66;;;23.49;37.21
40117;BME280;25829;50.228;18.936;2023-05-21T12:32:31;98762.22;;;23.47;37.94
40117;BME280;25829;50.228;18.936;2023-05-21T12:35:32;98758.72;;;23.47;37.73
40117;BME280;25829;50.228;18.936;2023-05-21T12:38:33;98752.59;;;23.41;37.33
40117;BME280;25829;50.228;18.936;2023-05-21T12:41:33;98754.19;;;23.42;37.09
40117;BME280;25829;50.228;18.936;2023-05-21T12:44:34;98763.88;;;23.43;37.65
40117;BME280;25829;50.228;18.936;2023-05-21T12:47:35;98757.97;;;23.41;37.06
40117;BME280;25829;50.228;18.936;2023-05-21T12:50:39;98760.16;;;23.39;37.46
40117;BME280;25829;50.228;18.936;2023-05-21T12:53:41;98752.41;;;23.32;37.29
40117;BME280;25829;50.228;18.936;2023-05-21T12:56:43;98745.91;;;23.33;38.13
40117;BME280;25829;50.228;18.936;2023-05-21T12:59:50;98748.03;;;23.37;38.12
40117;BME280;25829;50.228;18.936;2023-05-21T13:02:51;98749.16;;;23.35;38.09
40117;BME280;25829;50.228;18.936;2023-05-21T13:05:58;98748.63;;;23.33;37.72
40117;BME280;25829;50.228;18.936;2023-05-21T13:09:00;98742.16;;;23.34;37.95
40117;BME280;25829;50.228;18.936;2023-05-21T13:12:01;98738.13;;;23.32;37.41
40117;BME280;25829;50.228;18.936;2023-05-21T13:15:03;98733.84;;;23.31;37.45
40117;BME280;25829;50.228;18.936;2023-05-21T13:18:04;98749.44;;;23.29;37.90
40117;BME280;25829;50.228;18.936;2023-05-21T13:21:04;98734.72;;;23.21;37.34
40117;BME280;25829;50.228;18.936;2023-05-21T13:24:06;98736.13;;;23.14;36.95
40117;BME280;25829;50.228;18.936;2023-05-21T13:27:09;98734.00;;;23.10;37.00
40117;BME280;25829;50.228;18.936;2023-05-21T13:30:10;98731.09;;;23.07;37.55
40117;BME280;25829;50.228;18.936;2023-05-21T13:33:11;98743.50;;;23.03;37.73
40117;BME280;25829;50.228;18.936;2023-05-21T13:36:12;98734.34;;;23.04;37.85
40117;BME280;25829;50.228;18.936;2023-05-21T13:39:13;98735.94;;;23.05;37.67
40117;BME280;25829;50.228;18.936;2023-05-21T13:42:14;98729.47;;;23.06;37.41
40117;BME280;25829;50.228;18.936;2023-05-21T13:45:17;98731.88;;;23.07;38.08
40117;BME280;25829;50.228;18.936;2023-05-21T13:48:18;98733.00;;;23.01;37.68
40117;BME280;25829;50.228;18.936;2023-05-21T13:51:19;98730.31;;;23.01;37.52
40117;BME280;25829;50.228;18.936;2023-05-21T13:54:21;98723.84;;;23.02;36.66
40117;BME280;25829;50.228;18.936;2023-05-21T13:57:22;98730.63;;;23.00;37.27
40117;BME280;25829;50.228;18.936;2023-05-21T14:00:26;98724.94;;;23.01;37.89
40117;BME280;25829;50.228;18.936;2023-05-21T14:03:27;98723.84;;;23.02;36.31
40117;BME280;25829;50.228;18.936;2023-05-21T14:06:29;98719.28;;;23.03;37.26
40117;BME280;25829;50.228;18.936;2023-05-21T14:09:31;98714.97;;;23.02;38.18
40117;BME280;25829;50.228;18.936;2023-05-21T14:12:32;98717.09;;;23.05;38.13
40117;BME280;25829;50.228;18.936;2023-05-21T14:15:32;98717.09;;;23.05;38.08
40117;BME280;25829;50.228;18.936;2023-05-21T14:18:33;98722.78;;;23.03;37.97
40117;BME280;25829;50.228;18.936;2023-05-21T14:21:34;98715.31;;;22.95;37.12
40117;BME280;25829;50.228;18.936;2023-05-21T14:24:35;98724.25;;;22.85;37.10
40117;BME280;25829;50.228;18.936;2023-05-21T14:27:36;98722.16;;;22.82;36.48
40117;BME280;25829;50.228;18.936;2023-05-21T14:30:37;98735.63;;;22.77;36.65
40117;BME280;25829;50.228;18.936;2023-05-21T14:33:38;98724.13;;;22.72;35.89
40117;BME280;25829;50.228;18.936;2023-05-21T14:36:39;98717.41;;;22.69;36.25
40117;BME280;25829;50.228;18.936;2023-05-21T14:39:40;98710.69;;;22.67;37.18
40117;BME280;25829;50.228;18.936;2023-05-21T14:42:41;98722.53;;;22.66;36.84
40117;BME280;25829;50.228;18.936;2023-05-21T14:45:42;98726.88;;;22.61;37.23
40117;BME280;25829;50.228;18.936;2023-05-21T14:48:42;98711.53;;;22.57;37.08
40117;BME280;25829;50.228;18.936;2023-05-21T14:51:44;98716.97;;;22.52;37.64
40117;BME280;25829;50.228;18.936;2023-05-21T14:54:46;98720.47;;;22.52;37.67
40117;BME280;25829;50.228;18.936;2023-05-21T14:57:47;98725.06;;;22.47;37.28
40117;BME280;25829;50.228;18.936;2023-05-21T15:00:48;98720.00;;;22.40;38.16
40117;BME280;25829;50.228;18.936;2023-05-21T15:03:48;98722.66;;;22.40;38.48
40117;BME280;25829;50.228;18.936;2023-05-21T15:06:51;98724.31;;;22.41;38.38
40117;BME280;25829;50.228;18.936;2023-05-21T15:09:52;98729.16;;;22.39;38.02
40117;BME280;25829;50.228;18.936;2023-05-21T15:12:53;98728.09;;;22.35;38.46
40117;BME280;25829;50.228;18.936;2023-05-21T15:15:53;98724.84;;;22.38;38.75
40117;BME280;25829;50.228;18.936;2023-05-21T15:18:54;98727.00;;;22.41;38.99
40117;BME280;25829;50.228;18.936;2023-05-21T15:21:55;98723.75;;;22.39;38.84
40117;BME280;25829;50.228;18.936;2023-05-21T15:24:56;98735.88;;;22.36;39.34
40117;BME280;25829;50.228;18.936;2023-05-21T15:27:57;98725.16;;;22.31;39.88
40117;BME280;25829;50.228;18.936;2023-05-21T15:30:58;98725.19;;;22.26;40.24
40117;BME280;25829;50.228;18.936;2023-05-21T15:33:58;98723.06;;;22.23;40.48
40117;BME280;25829;50.228;18.936;2023-05-21T15:36:59;98729.25;;;22.24;40.36
40117;BME280;25829;50.228;18.936;2023-05-21T15:40:03;98727.34;;;22.24;40.33
40117;BME280;25829;50.228;18.936;2023-05-21T15:43:05;98722.78;;;22.20;40.91
40117;BME280;25829;50.228;18.936;2023-05-21T15:46:06;98716.13;;;22.17;41.14
40117;BME280;25829;50.228;18.936;2023-05-21T15:49:07;98720.16;;;22.14;41.13
40117;BME280;25829;50.228;18.936;2023-05-21T15:52:07;98719.34;;;22.14;41.01
40117;BME280;25829;50.228;18.936;2023-05-21T15:55:08;98717.75;;;22.08;40.70
40117;BME280;25829;50.228;18.936;2023-05-21T15:58:09;98716.97;;;22.02;40.69
40117;BME280;25829;50.228;18.936;2023-05-21T16:01:10;98724.28;;;21.97;40.67
40117;BME280;25829;50.228;18.936;2023-05-21T16:04:13;98714.06;;;21.93;40.13
40117;BME280;25829;50.228;18.936;2023-05-21T16:07:16;98724.81;;;21.93;40.68
40117;BME280;25829;50.228;18.936;2023-05-21T16:10:17;98726.44;;;21.89;40.47
40117;BME280;25829;50.228;18.936;2023-05-21T16:13:22;98734.22;;;21.86;40.57
40117;BME280;25829;50.228;18.936;2023-05-21T16:16:23;98725.38;;;21.80;40.46
40117;BME280;25829;50.228;18.936;2023-05-21T16:19:27;98721.34;;;21.78;40.43
40117;BME280;25829;50.228;18.936;2023-05-21T16:22:27;98722.97;;;21.74;40.53
40117;BME280;25829;50.228;18.936;2023-05-21T16:25:28;98725.69;;;21.68;40.88
40117;BME280;25829;50.228;18.936;2023-05-21T16:28:32;98725.16;;;21.66;40.85
40117;BME280;25829;50.228;18.936;2023-05-21T16:31:33;98725.19;;;21.61;41.11
40117;BME280;25829;50.228;18.936;2023-05-21T16:34:55;98730.00;;;21.59;41.01
40117;BME280;25829;50.228;18.936;2023-05-21T16:37:56;98729.47;;;21.57;40.80
40117;BME280;25829;50.228;18.936;2023-05-21T16:40:57;98729.22;;;21.54;40.81
40117;BME280;25829;50.228;18.936;2023-05-21T16:43:58;98733.78;;;21.53;40.70
40117;BME280;25829;50.228;18.936;2023-05-21T16:46:59;98730.59;;;21.46;40.75
40117;BME280;25829;50.228;18.936;2023-05-21T16:50:01;98734.63;;;21.38;40.89
40117;BME280;25829;50.228;18.936;2023-05-21T16:53:03;98734.91;;;21.32;40.92
40117;BME280;25829;50.228;18.936;2023-05-21T16:56:11;98736.78;;;21.26;40.62
40117;BME280;25829;50.228;18.936;2023-05-21T16:59:12;98734.94;;;21.21;40.95
40117;BME280;25829;50.228;18.936;2023-05-21T17:02:13;98743.25;;;21.20;40.95
40117;BME280;25829;50.228;18.936;2023-05-21T17:05:14;98738.66;;;21.15;40.92
40117;BME280;25829;50.228;18.936;2023-05-21T17:08:15;98739.22;;;21.12;40.71
40117;BME280;25829;50.228;18.936;2023-05-21T17:11:26;98735.44;;;21.08;40.44
40117;BME280;25829;50.228;18.936;2023-05-21T17:14:29;98733.03;;;21.02;40.89
40117;BME280;25829;50.228;18.936;2023-05-21T17:17:30;98735.44;;;20.98;40.92
40117;BME280;25829;50.228;18.936;2023-05-21T17:20:31;98738.13;;;20.93;41.07
40117;BME280;25829;50.228;18.936;2023-05-21T17:23:40;98740.28;;;20.91;41.15
40117;BME280;25829;50.228;18.936;2023-05-21T17:26:53;98733.56;;;20.83;41.40
40117;BME280;25829;50.228;18.936;2023-05-21T17:29:55;98738.94;;;20.78;41.15
40117;BME280;25829;50.228;18.936;2023-05-21T17:32:57;98734.13;;;20.75;41.60
40117;BME280;25829;50.228;18.936;2023-05-21T17:36:03;98745.38;;;20.72;41.62
40117;BME280;25829;50.228;18.936;2023-05-21T17:39:04;98738.41;;;20.66;41.59
40117;BME280;25829;50.228;18.936;2023-05-21T17:42:09;98736.53;;;20.61;41.85
40117;BME280;25829;50.228;18.936;2023-05-21T17:45:25;98742.94;;;20.55;41.99
40117;BME280;25829;50.228;18.936;2023-05-21T17:48:26;98740.78;;;20.47;42.00
40117;BME280;25829;50.228;18.936;2023-05-21T17:51:27;98744.81;;;20.44;42.34
40117;BME280;25829;50.228;18.936;2023-05-21T17:54:28;98745.03;;;20.38;42.53
40117;BME280;25829;50.228;18.936;2023-05-21T17:57:28;98752.22;;;20.32;42.59
40117;BME280;25829;50.228;18.936;2023-05-21T18:00:29;98756.50;;;20.28;42.53
40117;BME280;25829;50.228;18.936;2023-05-21T18:03:31;98746.31;;;20.25;42.64
40117;BME280;25829;50.228;18.936;2023-05-21T18:06:32;98749.53;;;20.17;42.81
40117;BME280;25829;50.228;18.936;2023-05-21T18:09:33;98759.41;;;20.11;43.09
40117;BME280;25829;50.228;18.936;2023-05-21T18:12:34;98752.16;;;20.07;43.14
40117;BME280;25829;50.228;18.936;2023-05-21T18:15:35;98754.84;;;20.01;43.19
40117;BME280;25829;50.228;18.936;2023-05-21T18:18:36;98751.31;;;19.96;43.33
40117;BME280;25829;50.228;18.936;2023-05-21T18:21:36;98753.97;;;19.86;43.43
40117;BME280;25829;50.228;18.936;2023-05-21T18:24:37;98750.72;;;19.78;43.43
40117;BME280;25829;50.228;18.936;2023-05-21T18:27:39;98749.06;;;19.72;43.53
40117;BME280;25829;50.228;18.936;2023-05-21T18:30:39;98757.34;;;19.66;43.86
40117;BME280;25829;50.228;18.936;2023-05-21T18:33:40;98753.53;;;19.62;43.72
40117;BME280;25829;50.228;18.936;2023-05-21T18:36:41;98754.31;;;19.57;43.69
40117;BME280;25829;50.228;18.936;2023-05-21T18:39:42;98742.50;;;19.53;43.74
40117;BME280;25829;50.228;18.936;2023-05-21T18:42:42;98753.75;;;19.50;43.53
40117;BME280;25829;50.228;18.936;2023-05-21T18:45:44;98743.28;;;19.43;43.70
40117;BME280;25829;50.228;18.936;2023-05-21T18:48:45;98744.84;;;19.39;43.89
40117;BME280;25829;50.228;18.936;2023-05-21T18:51:47;98748.56;;;19.33;44.08
40117;BME280;25829;50.228;18.936;2023-05-21T18:54:48;98751.19;;;19.28;44.19
40117;BME280;25829;50.228;18.936;2023-05-21T18:57:49;98751.66;;;19.20;43.98